Time;durP1;ratioP1;P1;durP2;ratioP2;P2;SDS_P1;SDS_P2;PMS_P1;PMS_P2;Temp;Humidity;BMP_temperature;BMP_pressure;BME280_temperature;BME280_humidity;BME280_pressure;Samples;Min_cycle;Max_cycle;Signal;HPM_P1;HPM_P2
2022/10/06 00:01:52;;;;;;;4.83;4.27;;;;;;;22.72;57.58;98313.53;5047666;28;20201;-31
2022/10/06 00:04:18;;;;;;;4.67;4.20;;;;;;;22.73;57.17;98317.81;5048523;28;20216;-31
2022/10/06 00:06:45;;;;;;;4.23;3.83;;;;;;;22.70;57.00;98316.84;5048270;28;20671;-31
2022/10/06 00:09:11;;;;;;;4.37;3.97;;;;;;;22.73;57.23;98322.97;5047956;28;20211;-31
2022/10/06 00:11:38;;;;;;;4.53;4.13;;;;;;;22.72;57.19;98323.78;5047829;28;20208;-31
2022/10/06 00:14:05;;;;;;;4.47;4.03;;;;;;;22.73;57.12;98314.38;5050233;28;20583;-31
2022/10/06 00:16:31;;;;;;;5.87;4.10;;;;;;;22.73;57.20;98315.28;5049649;28;20715;-31
2022/10/06 00:18:58;;;;;;;4.27;3.87;;;;;;;22.72;57.23;98318.66;5054461;28;20207;-31
2022/10/06 00:21:24;;;;;;;4.23;3.83;;;;;;;22.73;57.21;98322.06;5052461;28;20614;-31
2022/10/06 00:23:51;;;;;;;4.50;3.80;;;;;;;22.69;56.75;98321.09;5055401;28;20201;-31
2022/10/06 00:26:17;;;;;;;4.10;3.70;;;;;;;22.72;56.88;98320.34;5047169;28;20570;-31
2022/10/06 00:28:47;;;;;;;4.97;4.20;;;;;;;22.73;57.22;98324.63;5048656;28;20216;-31
2022/10/06 00:31:14;;;;;;;4.37;3.93;;;;;;;22.73;57.22;98320.41;5048060;28;20200;-31
2022/10/06 00:33:41;;;;;;;4.40;3.60;;;;;;;22.73;57.17;98322.06;5050945;28;20209;-31
2022/10/06 00:36:08;;;;;;;4.43;4.03;;;;;;;22.72;57.32;98320.34;5043353;28;20718;-31
2022/10/06 00:38:34;;;;;;;4.27;3.87;;;;;;;22.72;57.21;98321.22;5054735;28;20204;-31
2022/10/06 00:41:01;;;;;;;4.00;3.60;;;;;;;22.72;56.62;98326.34;5050935;28;20202;-31
2022/10/06 00:43:55;;;;;;;3.93;3.63;;;;;;;22.73;57.23;98324.63;5052737;28;20201;-31
2022/10/06 00:46:44;;;;;;;4.17;3.77;;;;;;;22.68;57.17;98321.06;5046517;28;20221;-31
2022/10/06 00:49:20;;;;;;;4.57;4.17;;;;;;;22.72;57.36;98334.03;5054568;28;20205;-31
2022/10/06 00:51:52;;;;;;;4.63;3.90;;;;;;;22.60;57.22;98313.06;5052672;28;20200;-31
2022/10/06 00:54:18;;;;;;;3.90;3.60;;;;;;;22.72;57.56;98334.03;5043884;28;20429;-31
2022/10/06 00:56:45;;;;;;;4.43;4.03;;;;;;;22.73;57.37;98338.34;5052996;28;20224;-31
2022/10/06 00:59:13;;;;;;;4.10;3.70;;;;;;;22.73;57.35;98338.34;5047857;28;20201;-31
2022/10/06 01:01:41;;;;;;;4.07;3.67;;;;;;;22.64;57.30;98321.72;5051282;28;20208;-31
2022/10/06 01:04:08;;;;;;;3.90;3.60;;;;;;;22.72;57.25;98341.72;5034448;28;20204;-31
2022/10/06 01:06:49;;;;;;;4.13;3.73;;;;;;;22.73;57.32;98352.81;5033725;28;20703;-31
2022/10/06 01:09:16;;;;;;;3.93;3.60;;;;;;;22.72;57.29;98340.84;5034929;28;20193;-31
2022/10/06 01:11:43;;;;;;;3.80;3.47;;;;;;;22.68;57.25;98344.09;5049677;28;20703;-31
2022/10/06 01:14:10;;;;;;;4.70;3.80;;;;;;;22.72;57.31;98356.22;5055572;28;20208;-31
2022/10/06 01:16:37;;;;;;;4.30;3.90;;;;;;;22.72;57.29;98354.53;5046378;28;20592;-31
2022/10/06 01:19:05;;;;;;;4.27;3.87;;;;;;;22.63;57.45;98337.94;5034964;28;20212;-31
2022/10/06 01:21:37;;;;;;;3.83;3.53;;;;;;;22.72;57.37;98346.84;5035470;28;20205;-31
2022/10/06 01:24:04;;;;;;;3.80;3.43;;;;;;;22.68;57.38;98344.97;5046330;28;20212;-31
2022/10/06 01:26:31;;;;;;;4.00;3.60;;;;;;;22.72;57.32;98354.53;5046568;28;20228;-31
2022/10/06 01:28:58;;;;;;;4.20;3.80;;;;;;;22.69;57.32;98348.41;5031248;28;20201;-31
2022/10/06 01:31:24;;;;;;;4.53;4.13;;;;;;;22.71;57.38;98355.31;5031314;28;20216;-31
2022/10/06 01:33:52;;;;;;;3.93;3.53;;;;;;;22.72;57.45;98362.22;5031242;28;20288;-31
2022/10/06 01:36:19;;;;;;;3.80;3.50;;;;;;;22.72;57.39;98359.66;5047368;28;20256;-31
2022/10/06 01:38:45;;;;;;;4.00;3.60;;;;;;;22.71;57.34;98357.88;5047150;28;20684;-31
2022/10/06 01:41:12;;;;;;;4.67;3.70;;;;;;;22.73;57.08;98360.50;5047669;28;20212;-31
2022/10/06 01:43:38;;;;;;;4.20;3.80;;;;;;;22.72;57.35;98359.66;5046441;28;20205;-31
2022/10/06 01:46:05;;;;;;;3.93;3.63;;;;;;;22.73;57.38;98360.50;5047362;28;20231;-31
2022/10/06 01:48:34;;;;;;;3.83;3.50;;;;;;;22.72;57.39;98364.78;5048626;28;20563;-31
2022/10/06 01:51:00;;;;;;;4.40;3.60;;;;;;;22.68;57.56;98365.47;5047220;28;20205;-31
2022/10/06 01:53:27;;;;;;;4.00;3.60;;;;;;;22.71;57.34;98357.88;5047049;28;20201;-31
2022/10/06 01:56:00;;;;;;;3.90;3.50;;;;;;;22.73;57.31;98375.88;5046011;28;20234;-31
2022/10/06 01:58:26;;;;;;;4.17;3.77;;;;;;;22.72;57.32;98369.91;5047913;28;20299;-31
2022/10/06 02:00:53;;;;;;;3.53;3.20;;;;;;;22.72;57.46;98371.59;5047717;28;20741;-31
2022/10/06 02:03:20;;;;;;;3.73;3.43;;;;;;;22.70;57.56;98363.84;5050100;28;20686;-31
2022/10/06 02:05:47;;;;;;;3.60;3.30;;;;;;;22.65;57.20;98356.81;5049955;28;20598;-31
2022/10/06 02:08:13;;;;;;;3.80;3.50;;;;;;;22.72;57.57;98364.78;5051361;28;20304;-31
2022/10/06 02:10:40;;;;;;;4.07;3.67;;;;;;;22.73;57.27;98365.63;5047285;28;20667;-31
2022/10/06 02:13:06;;;;;;;3.83;3.50;;;;;;;22.72;57.35;98372.47;5052579;28;20211;-31
2022/10/06 02:15:33;;;;;;;3.70;3.40;;;;;;;22.69;57.33;98369.78;5050744;28;20303;-31
2022/10/06 02:17:59;;;;;;;3.93;3.60;;;;;;;22.71;57.48;98373.25;5055731;28;20224;-31
2022/10/06 02:20:26;;;;;;;4.93;3.43;;;;;;;22.67;57.25;98361.16;5049227;28;20197;-31
2022/10/06 02:22:52;;;;;;;3.73;3.43;;;;;;;22.73;57.47;98375.88;5050726;28;20223;-31
2022/10/06 02:25:19;;;;;;;4.27;3.30;;;;;;;22.73;57.39;98375.88;5048995;28;20514;-31
2022/10/06 02:27:46;;;;;;;4.13;3.33;;;;;;;22.65;57.34;98367.91;5049435;28;20224;-31
2022/10/06 02:30:15;;;;;;;3.40;3.10;;;;;;;22.72;57.42;98377.59;5049271;28;20221;-31
2022/10/06 02:32:42;;;;;;;3.47;3.17;;;;;;;22.71;57.32;98386.06;5050865;28;20197;-31
2022/10/06 02:35:11;;;;;;;3.63;3.23;;;;;;;22.72;57.38;98389.53;5040682;28;20197;-31
2022/10/06 02:37:39;;;;;;;3.00;2.80;;;;;;;22.66;57.39;98381.59;5046959;28;20196;-31
2022/10/06 02:40:06;;;;;;;3.50;3.20;;;;;;;22.72;57.34;98394.66;5044592;28;20212;-31
2022/10/06 02:42:36;;;;;;;3.60;3.30;;;;;;;22.70;57.43;98394.59;5048857;28;20220;-31
2022/10/06 02:45:05;;;;;;;3.57;3.27;;;;;;;22.72;57.37;98402.34;5042497;28;20205;-31
2022/10/06 02:47:33;;;;;;;3.97;3.30;;;;;;;22.72;57.47;98402.34;5044255;28;20225;-31
2022/10/06 02:50:00;;;;;;;3.57;3.27;;;;;;;22.72;57.48;98405.78;5043525;28;20208;-31
2022/10/06 02:52:34;;;;;;;3.67;3.30;;;;;;;22.72;57.46;98408.34;5048715;28;20219;-31
2022/10/06 02:55:03;;;;;;;3.53;3.20;;;;;;;22.65;57.55;98397.81;5047048;28;20209;-31
2022/10/06 02:57:30;;;;;;;3.50;3.20;;;;;;;22.72;57.49;98405.78;5047797;28;20236;-31
2022/10/06 02:59:57;;;;;;;3.93;3.40;;;;;;;22.05;57.19;98292.94;5044576;28;20702;-31
2022/10/06 03:02:23;;;;;;;3.30;3.00;;;;;;;22.72;57.52;98408.34;5051252;28;20411;-31
2022/10/06 03:04:50;;;;;;;3.73;3.37;;;;;;;22.72;57.42;98410.91;5052216;28;20676;-31
2022/10/06 03:07:16;;;;;;;3.20;2.97;;;;;;;22.72;57.40;98418.59;5050489;28;20228;-31
2022/10/06 03:09:43;;;;;;;3.37;3.07;;;;;;;22.72;57.41;98418.59;5047939;28;20242;-31
2022/10/06 03:12:09;;;;;;;3.30;3.00;;;;;;;22.72;57.42;98412.59;5050013;28;20212;-31
2022/10/06 03:14:36;;;;;;;3.37;3.07;;;;;;;22.72;57.43;98417.72;5048983;28;20212;-31
2022/10/06 03:17:02;;;;;;;3.33;3.07;;;;;;;22.72;57.38;98426.28;5045204;28;20221;-31
2022/10/06 03:19:29;;;;;;;3.37;3.07;;;;;;;22.72;57.43;98427.97;5050151;28;20200;-31
2022/10/06 03:21:55;;;;;;;3.60;3.10;;;;;;;22.72;57.47;98435.66;5048772;28;20212;-31
2022/10/06 03:24:22;;;;;;;3.37;3.13;;;;;;;22.71;57.71;98429.66;5048035;28;20680;-31
2022/10/06 03:26:48;;;;;;;3.87;3.47;;;;;;;22.72;57.39;98443.34;5048580;28;20235;-31
2022/10/06 03:29:15;;;;;;;2.90;2.70;;;;;;;22.72;57.53;98444.22;5041574;28;20730;-31
2022/10/06 03:31:42;;;;;;;3.37;3.07;;;;;;;22.72;57.39;98441.66;5049541;28;20208;-31
2022/10/06 03:34:08;;;;;;;3.30;3.00;;;;;;;22.65;57.42;98426.84;5050764;28;20200;-31
2022/10/06 03:36:35;;;;;;;3.50;3.20;;;;;;;22.71;57.37;98442.47;5049285;28;20232;-31
2022/10/06 03:39:02;;;;;;;3.13;2.93;;;;;;;22.71;57.43;98445.03;5054000;28;20205;-31
2022/10/06 03:41:31;;;;;;;3.03;2.80;;;;;;;22.72;57.50;98451.91;5047828;28;20220;-31
2022/10/06 03:43:58;;;;;;;3.43;3.13;;;;;;;22.72;57.45;98458.72;5047991;28;20209;-31
2022/10/06 03:46:26;;;;;;;3.53;3.20;;;;;;;22.72;57.47;98462.16;5055056;28;20659;-31
2022/10/06 03:48:52;;;;;;;3.40;3.10;;;;;;;22.72;57.42;98463.84;5051510;28;20702;-31
2022/10/06 03:51:26;;;;;;;3.10;2.80;;;;;;;22.71;57.40;98459.53;5049247;28;20207;-31
2022/10/06 03:53:52;;;;;;;3.50;3.20;;;;;;;22.70;57.42;98460.34;5055880;28;20207;-31
2022/10/06 03:56:29;;;;;;;3.10;2.80;;;;;;;22.73;57.62;98471.59;5047661;28;20224;-31
2022/10/06 03:58:58;;;;;;;3.50;3.20;;;;;;;22.71;57.41;98462.97;5046963;28;20200;-31
2022/10/06 04:01:35;;;;;;;3.20;2.90;;;;;;;22.73;57.54;98483.53;5044929;28;20694;-31
2022/10/06 04:04:02;;;;;;;3.03;2.83;;;;;;;22.73;57.45;98474.16;5042877;28;20257;-31
2022/10/06 04:06:30;;;;;;;3.30;3.00;;;;;;;22.72;57.42;98477.53;5047281;28;20224;-31
2022/10/06 04:08:56;;;;;;;3.13;2.83;;;;;;;22.73;57.42;98483.53;5045238;28;20201;-31
2022/10/06 04:11:31;;;;;;;3.40;3.10;;;;;;;22.72;57.51;98481.78;5048489;28;20672;-31
2022/10/06 04:14:05;;;;;;;3.23;2.93;;;;;;;22.72;57.45;98482.66;5037527;28;20208;-31
2022/10/06 04:16:39;;;;;;;3.07;2.80;;;;;;;22.72;57.46;98486.91;5038013;28;20225;-31
2022/10/06 04:19:08;;;;;;;3.07;2.83;;;;;;;22.72;57.46;98486.91;5040355;28;20207;-31
2022/10/06 04:21:36;;;;;;;3.13;2.83;;;;;;;22.72;57.37;98497.16;5051707;28;20613;-31
2022/10/06 04:24:02;;;;;;;2.93;2.73;;;;;;;22.68;57.52;98496.16;5055004;28;20920;-31
2022/10/06 04:26:30;;;;;;;3.50;3.20;;;;;;;22.71;57.58;98500.56;5051759;28;20749;-31
2022/10/06 04:28:57;;;;;;;2.80;2.60;;;;;;;22.71;57.80;98500.56;5056500;28;20201;-31
2022/10/06 04:31:24;;;;;;;3.23;2.93;;;;;;;22.68;57.60;98497.88;5050737;28;20205;-31
2022/10/06 04:33:55;;;;;;;3.07;2.77;;;;;;;22.72;57.50;98509.97;5050657;28;20284;-31
2022/10/06 04:36:23;;;;;;;3.20;2.70;;;;;;;22.72;57.64;98512.53;5048391;28;20228;-31
2022/10/06 04:38:52;;;;;;;2.97;2.77;;;;;;;22.72;57.35;98508.28;5057506;28;20212;-31
2022/10/06 04:41:19;;;;;;;3.13;2.93;;;;;;;22.68;57.58;98498.72;5053708;28;20208;-31
2022/10/06 04:43:46;;;;;;;3.30;3.00;;;;;;;22.73;57.56;98493.78;5053300;28;20204;-30
2022/10/06 04:46:13;;;;;;;3.03;2.80;;;;;;;22.72;57.52;98500.59;5049809;28;20217;-31
2022/10/06 04:48:59;;;;;;;3.00;2.80;;;;;;;22.72;57.67;98505.72;5050410;28;20201;-31
2022/10/06 04:51:26;;;;;;;2.80;2.60;;;;;;;22.73;57.61;98521.97;5046324;28;20205;-31
2022/10/06 04:53:52;;;;;;;2.80;2.60;;;;;;;22.73;57.53;98527.97;5052198;28;20204;-31
2022/10/06 04:56:23;;;;;;;3.20;2.90;;;;;;;22.74;57.59;98532.28;5050471;28;20224;-31
2022/10/06 04:58:50;;;;;;;3.40;3.10;;;;;;;22.74;57.58;98539.97;5050003;28;20200;-31
2022/10/06 05:01:19;;;;;;;3.73;2.70;;;;;;;22.70;57.51;98530.41;5051247;28;20201;-31
2022/10/06 05:03:46;;;;;;;3.20;2.90;;;;;;;22.74;57.56;98542.53;5052074;28;20269;-31
2022/10/06 05:06:21;;;;;;;2.90;2.70;;;;;;;22.75;57.49;98552.00;5050141;28;20224;-31
2022/10/06 05:09:20;;;;;;;3.00;2.80;;;;;;;22.74;57.42;98555.34;5052388;28;20211;-32
2022/10/06 05:11:47;;;;;;;3.20;2.90;;;;;;;22.74;57.62;98554.50;5064706;28;20204;-31
2022/10/06 05:14:13;;;;;;;8.93;2.90;;;;;;;22.76;57.75;98568.22;5051322;28;20616;-31
2022/10/06 05:16:41;;;;;;;4.93;3.00;;;;;;;22.75;57.64;98569.03;5052221;28;20232;-31
2022/10/06 05:19:08;;;;;;;4.03;2.70;;;;;;;22.73;57.55;98562.97;5042283;28;20668;-31
2022/10/06 05:21:35;;;;;;;3.50;3.00;;;;;;;22.76;57.20;98569.09;5049321;28;20704;-31
2022/10/06 05:24:02;;;;;;;4.63;3.00;;;;;;;22.76;57.99;98576.78;5049873;28;20668;-31
2022/10/06 05:26:32;;;;;;;3.90;2.73;;;;;;;22.77;57.52;98577.69;5049986;28;20578;-31
2022/10/06 05:28:58;;;;;;;3.10;2.80;;;;;;;22.77;57.23;98577.69;5051194;28;20225;-31
2022/10/06 05:31:26;;;;;;;4.00;2.90;;;;;;;22.78;57.44;98574.28;5056927;28;20611;-31
2022/10/06 05:33:54;;;;;;;3.83;3.17;;;;;;;22.78;57.43;98576.84;5052507;28;20208;-32
2022/10/06 05:36:22;;;;;;;3.60;2.63;;;;;;;22.70;57.54;98565.41;5053775;28;20225;-31
2022/10/06 05:38:49;;;;;;;3.83;3.43;;;;;;;22.79;57.48;98592.28;5049048;28;20497;-31
2022/10/06 05:41:19;;;;;;;4.70;4.07;;;;;;;22.79;56.66;98584.59;5048830;28;20209;-31
2022/10/06 05:43:45;;;;;;;9.70;4.90;;;;;;;22.77;55.82;98578.53;5050026;28;20201;-31
2022/10/06 05:46:18;;;;;;;8.57;5.13;;;;;;;22.78;54.99;98588.00;5055270;28;20228;-31
2022/10/06 05:48:50;;;;;;;7.70;5.60;;;;;;;22.79;54.23;98592.28;5050498;28;20224;-31
2022/10/06 05:51:18;;;;;;;7.37;5.47;;;;;;;22.77;53.83;98591.34;5054795;28;20205;-31
2022/10/06 05:53:44;;;;;;;6.60;5.27;;;;;;;22.79;53.17;98593.97;5050318;28;20350;-31
2022/10/06 05:56:15;;;;;;;6.60;5.67;;;;;;;22.78;52.94;98605.06;5051236;28;20228;-31
2022/10/06 05:58:43;;;;;;;8.27;6.23;;;;;;;22.77;53.03;98600.75;5049517;28;20200;-31
2022/10/06 06:01:10;;;;;;;9.03;5.70;;;;;;;22.77;51.78;98600.75;5053725;28;20201;-31
2022/10/06 06:03:38;;;;;;;6.70;5.13;;;;;;;22.78;51.77;98605.06;5050323;28;20216;-31
2022/10/06 06:06:14;;;;;;;9.00;5.13;;;;;;;22.77;52.44;98611.00;5049986;28;20963;-31
2022/10/06 06:08:40;;;;;;;9.23;5.87;;;;;;;22.77;53.05;98618.69;5045222;28;20228;-31
2022/10/06 06:11:07;;;;;;;8.63;5.30;;;;;;;22.77;53.24;98624.66;5048949;28;20275;-31
2022/10/06 06:13:34;;;;;;;7.43;5.20;;;;;;;22.76;53.68;98622.94;5049670;28;20279;-31
2022/10/06 06:16:03;;;;;;;7.00;5.13;;;;;;;22.76;53.80;98620.38;5050614;28;20247;-31
2022/10/06 06:18:30;;;;;;;5.73;5.00;;;;;;;22.75;54.19;98630.56;5047673;28;20193;-31
2022/10/06 06:21:02;;;;;;;7.93;5.00;;;;;;;22.63;54.07;98612.09;5049544;28;20287;-31
2022/10/06 06:23:39;;;;;;;8.97;5.00;;;;;;;22.75;53.77;98636.56;5041416;28;20308;-31
2022/10/06 06:26:07;;;;;;;6.50;4.60;;;;;;;22.75;53.84;98638.25;5048756;28;20228;-30
2022/10/06 06:28:35;;;;;;;8.40;4.93;;;;;;;22.76;53.42;98655.38;5055401;28;20235;-31
2022/10/06 06:31:06;;;;;;;12.47;5.53;;;;;;;22.76;53.04;98651.13;5041389;28;20596;-31
2022/10/06 06:33:34;;;;;;;6.97;5.00;;;;;;;22.75;53.27;98657.06;5049548;28;20205;-31
2022/10/06 06:36:02;;;;;;;6.83;4.83;;;;;;;22.76;53.71;98660.50;5049826;28;20247;-31
2022/10/06 06:38:30;;;;;;;7.13;5.23;;;;;;;22.73;53.89;98665.47;5050312;28;20208;-31
2022/10/06 06:40:57;;;;;;;8.53;5.20;;;;;;;22.77;54.09;98669.94;5045036;28;20240;-31
2022/10/06 06:43:24;;;;;;;8.40;4.80;;;;;;;22.76;54.34;98679.31;5050292;28;20212;-31
2022/10/06 06:45:51;;;;;;;5.23;4.73;;;;;;;22.72;54.45;98669.75;5048690;28;20604;-31
2022/10/06 06:48:17;;;;;;;6.93;4.77;;;;;;;22.73;54.56;98679.19;5043639;28;20595;-31
2022/10/06 06:50:44;;;;;;;5.37;4.47;;;;;;;22.77;54.67;98693.03;5049443;28;20212;-31
2022/10/06 06:53:12;;;;;;;6.07;4.67;;;;;;;22.77;54.79;98695.59;5049411;28;20288;-31
2022/10/06 06:55:51;;;;;;;7.70;4.90;;;;;;;22.76;54.92;98692.13;5048856;28;20668;-31
2022/10/06 06:58:18;;;;;;;7.90;5.23;;;;;;;22.78;55.02;98697.31;5046983;28;20204;-31
2022/10/06 07:00:45;;;;;;;9.30;4.73;;;;;;;22.77;55.05;98699.00;5051706;28;20204;-31
2022/10/06 07:03:12;;;;;;;8.83;5.40;;;;;;;22.77;54.84;98691.31;5048292;28;20240;-31
2022/10/06 07:05:39;;;;;;;7.63;4.87;;;;;;;22.73;54.83;98693.69;5056004;28;20753;-31
2022/10/06 07:08:09;;;;;;;8.10;4.80;;;;;;;22.78;54.93;98710.13;5053546;28;20221;-31
2022/10/06 07:10:36;;;;;;;8.40;4.67;;;;;;;22.78;54.95;98708.47;5051204;28;20235;-31
2022/10/06 07:13:03;;;;;;;11.50;5.43;;;;;;;22.78;55.01;98715.25;5056086;28;20813;-31
2022/10/06 07:26:32;;;;;;;6.83;4.30;;;;;;;22.77;55.43;98705.84;5034251;28;20753;-31
2022/10/06 07:29:01;;;;;;;7.87;4.43;;;;;;;22.77;55.18;98732.31;5043778;28;20220;-31
2022/10/06 07:31:32;;;;;;;8.13;4.63;;;;;;;22.75;55.61;98713.47;5045767;28;20197;-30
2022/10/06 07:33:59;;;;;;;6.13;4.27;;;;;;;22.76;55.59;98712.63;5046715;28;20667;-31
2022/10/06 07:36:26;;;;;;;4.93;4.43;;;;;;;22.75;55.62;98713.47;5043923;28;20221;-31
2022/10/06 07:38:52;;;;;;;7.07;4.47;;;;;;;22.76;55.58;98716.88;5041400;28;20200;-31
2022/10/06 07:41:19;;;;;;;9.80;4.50;;;;;;;22.76;55.66;98714.31;5048751;28;20279;-31
2022/10/06 07:43:46;;;;;;;5.73;4.27;;;;;;;22.73;55.65;98709.06;5048176;28;20197;-31
2022/10/06 07:46:12;;;;;;;5.43;4.10;;;;;;;22.76;55.36;98720.31;5049408;28;20225;-31
2022/10/06 07:48:39;;;;;;;5.90;4.27;;;;;;;22.75;55.62;98710.91;5048094;28;20224;-31
2022/10/06 07:51:13;;;;;;;7.40;4.67;;;;;;;22.76;55.69;98720.31;5045330;28;20203;-31
2022/10/06 07:53:40;;;;;;;5.80;4.10;;;;;;;22.76;55.64;98724.56;5045963;28;20201;-31
2022/10/06 07:56:07;;;;;;;4.77;4.13;;;;;;;22.78;55.72;98731.53;5044894;28;20582;-31
2022/10/06 07:58:33;;;;;;;4.67;4.00;;;;;;;22.77;55.63;98724.63;5045871;28;20201;-31
2022/10/06 08:01:05;;;;;;;5.63;3.90;;;;;;;22.77;55.75;98731.47;5043967;28;20209;-31
2022/10/06 08:03:31;;;;;;;5.97;4.33;;;;;;;22.78;55.70;98730.66;5038299;28;20209;-31
2022/10/06 08:05:59;;;;;;;7.13;4.07;;;;;;;22.73;55.73;98727.00;5033732;28;20594;-31
2022/10/06 08:08:26;;;;;;;4.90;4.17;;;;;;;22.78;55.67;98741.78;5033323;28;20530;-31
2022/10/06 08:10:53;;;;;;;4.17;3.70;;;;;;;22.77;55.76;98742.56;5048872;28;20215;-31
2022/10/06 08:13:20;;;;;;;4.67;4.03;;;;;;;22.79;55.76;98742.63;5046362;28;20204;-31
2022/10/06 08:15:49;;;;;;;4.17;3.77;;;;;;;22.78;55.81;98740.91;5050337;28;20227;-31
2022/10/06 08:18:16;;;;;;;5.13;3.93;;;;;;;22.78;55.85;98746.03;5045910;28;20218;-31
2022/10/06 08:21:12;;;;;;;5.77;3.90;;;;;;;22.78;55.97;98774.22;5050030;28;20216;-31
2022/10/06 08:23:41;;;;;;;4.87;3.70;;;;;;;22.77;56.04;98742.56;5045453;28;20205;-31
2022/10/06 08:26:09;;;;;;;7.20;4.10;;;;;;;22.78;56.03;98738.34;5046108;28;20232;-31
2022/10/06 08:28:36;;;;;;;7.57;4.07;;;;;;;22.78;56.11;98744.34;5051658;28;20244;-31
2022/10/06 08:31:06;;;;;;;6.03;3.63;;;;;;;22.78;56.14;98752.03;5046168;28;20212;-31
2022/10/06 08:33:34;;;;;;;4.57;3.80;;;;;;;22.79;56.16;98758.00;5044695;28;20208;-31
2022/10/06 08:36:05;;;;;;;5.07;3.97;;;;;;;22.79;56.22;98758.00;5045127;28;20225;-31
2022/10/06 08:38:31;;;;;;;4.60;3.90;;;;;;;22.78;55.95;98746.91;5046895;28;20591;-31
2022/10/06 08:40:58;;;;;;;5.03;3.93;;;;;;;22.80;56.17;98767.47;5046866;28;20204;-31
2022/10/06 08:43:25;;;;;;;4.67;3.70;;;;;;;22.79;56.25;98760.59;5038067;28;20202;-31
2022/10/06 08:45:58;;;;;;;7.23;3.57;;;;;;;22.81;56.30;98761.53;5038956;28;20615;-31
2022/10/06 08:48:28;;;;;;;6.53;3.93;;;;;;;22.72;56.34;98741.53;5032244;28;20249;-31
2022/10/06 08:51:11;;;;;;;7.33;3.93;;;;;;;22.82;56.22;98758.16;5044431;28;20247;-31
2022/10/06 08:53:45;;;;;;;4.83;4.30;;;;;;;22.82;56.06;98770.97;5048014;28;20204;-31
2022/10/06 08:56:26;;;;;;;5.70;4.10;;;;;;;22.78;56.10;98759.72;5047779;28;20220;-31
2022/10/06 08:59:03;;;;;;;5.27;4.03;;;;;;;22.78;56.14;98767.41;5049305;28;20582;-31
2022/10/06 09:01:37;;;;;;;4.30;3.90;;;;;;;22.84;56.21;98769.38;5034555;28;20288;-31
2022/10/06 09:04:06;;;;;;;5.53;3.50;;;;;;;22.85;56.12;98768.53;5031987;28;20538;-31
2022/10/06 09:07:09;;;;;;;4.67;3.40;;;;;;;22.81;56.22;98757.31;5048240;28;20232;-31
2022/10/06 09:10:02;;;;;;;7.17;3.63;;;;;;;22.85;56.25;98766.88;5035587;28;20306;-31
2022/10/06 09:12:35;;;;;;;4.50;3.67;;;;;;;22.82;56.24;98764.16;5050799;28;20201;-31
2022/10/06 09:15:14;;;;;;;5.27;3.60;;;;;;;22.85;56.27;98766.88;5050070;28;20607;-31
2022/10/06 09:17:49;;;;;;;4.43;3.73;;;;;;;22.87;56.23;98766.94;5047574;28;20201;-31
2022/10/06 09:20:19;;;;;;;4.90;3.67;;;;;;;22.85;56.29;98768.53;5047419;28;20212;-31
2022/10/06 09:22:46;;;;;;;3.93;3.50;;;;;;;22.83;56.28;98772.75;5030005;28;20260;-31
2022/10/06 09:25:15;;;;;;;4.33;3.53;;;;;;;22.86;56.25;98768.59;5026912;28;20220;-31
2022/10/06 09:27:42;;;;;;;4.07;3.63;;;;;;;22.77;56.43;98746.84;5052568;28;20200;-31
2022/10/06 09:30:12;;;;;;;4.03;3.10;;;;;;;22.84;56.33;98767.69;5047372;28;20194;-31
2022/10/06 09:32:42;;;;;;;5.73;3.80;;;;;;;22.85;56.35;98778.78;5038930;28;20202;-31
2022/10/06 09:35:17;;;;;;;7.00;3.83;;;;;;;22.83;56.28;98775.31;5034532;28;20201;-31
2022/10/06 09:38:03;;;;;;;5.47;3.67;;;;;;;22.84;56.35;98783.06;5058960;28;20599;-31
2022/10/06 09:40:50;;;;;;;5.07;3.57;;;;;;;22.84;56.54;98777.06;5051314;28;20209;-31
2022/10/06 09:43:20;;;;;;;4.77;3.73;;;;;;;22.85;56.35;98776.22;5044534;28;20212;-31
2022/10/06 09:45:48;;;;;;;5.20;3.60;;;;;;;22.86;56.34;98778.00;5054289;28;20220;-31
2022/10/06 09:48:23;;;;;;;5.13;3.60;;;;;;;22.87;56.36;98774.63;5050296;28;20228;-31
2022/10/06 09:51:16;;;;;;;7.60;4.47;;;;;;;22.87;56.39;98779.75;5047832;28;20208;-31
2022/10/06 09:54:09;;;;;;;6.20;3.90;;;;;;;22.87;56.42;98785.75;5048262;28;20279;-31
2022/10/06 09:56:40;;;;;;;7.53;4.53;;;;;;;22.88;56.44;98792.63;5048660;28;20224;-31
2022/10/06 09:59:28;;;;;;;8.23;4.30;;;;;;;22.76;56.58;98763.91;5033800;28;20255;-31
2022/10/06 10:01:55;;;;;;;7.37;3.83;;;;;;;22.87;55.98;98790.88;5033472;28;20215;-31
2022/10/06 10:04:24;;;;;;;7.90;4.70;;;;;;;22.76;56.28;98769.03;5049083;28;20205;-31
2022/10/06 10:06:51;;;;;;;6.60;4.07;;;;;;;22.80;56.23;98780.31;5036819;28;20236;-31
2022/10/06 10:09:25;;;;;;;8.07;4.37;;;;;;;22.86;56.50;98791.69;5022838;28;20596;-31
2022/10/06 10:14:47;;;;;;;7.10;4.33;;;;;;;22.87;56.53;98779.75;5052623;28;20201;-31
2022/10/06 10:17:17;;;;;;;9.37;4.50;;;;;;;22.87;56.47;98784.88;5048900;28;20228;-31
2022/10/06 10:19:46;;;;;;;6.63;4.07;;;;;;;22.86;56.95;98778.84;5047850;28;20201;-31
2022/10/06 10:22:39;;;;;;;7.73;4.07;;;;;;;22.86;56.54;98780.56;5043711;28;20212;-31
2022/10/06 10:25:08;;;;;;;5.50;4.03;;;;;;;22.85;56.58;98786.47;5046044;28;20216;-31
2022/10/06 10:27:57;;;;;;;6.37;4.10;;;;;;;22.86;56.49;98788.25;5053477;28;20667;-31
2022/10/06 10:30:23;;;;;;;6.07;4.07;;;;;;;22.85;56.52;98789.03;5045966;28;20228;-31
2022/10/06 10:33:40;;;;;;;4.80;3.90;;;;;;;22.85;56.61;98787.38;5043343;28;20205;-31
2022/10/06 10:36:36;;;;;;;5.00;3.77;;;;;;;22.84;56.53;98790.75;5032625;28;20224;-31
2022/10/06 10:39:04;;;;;;;5.57;3.90;;;;;;;22.80;56.58;98777.72;5052568;28;20534;-31
2022/10/06 10:41:37;;;;;;;6.27;4.33;;;;;;;22.80;56.62;98788.84;5048524;28;20208;-31
2022/10/06 10:44:09;;;;;;;8.63;4.27;;;;;;;22.74;56.54;98780.03;5030356;28;20204;-31
2022/10/06 10:46:38;;;;;;;5.27;3.80;;;;;;;22.85;56.66;98789.94;5039958;28;20236;-31
2022/10/06 10:49:21;;;;;;;4.87;3.40;;;;;;;22.85;56.72;98794.16;5052137;28;20763;-31
2022/10/06 10:51:51;;;;;;;4.50;3.40;;;;;;;22.86;56.92;98793.38;5046163;28;20227;-31
2022/10/06 10:54:20;;;;;;;4.53;3.40;;;;;;;22.78;56.63;98780.22;5048578;28;20212;-31
2022/10/06 10:56:48;;;;;;;5.83;4.20;;;;;;;22.86;56.66;98790.81;5044346;28;20232;-31
2022/10/06 10:59:18;;;;;;;5.83;4.00;;;;;;;22.86;56.60;98795.94;5046847;28;20201;-31
2022/10/06 11:02:12;;;;;;;5.23;3.53;;;;;;;22.86;56.80;98790.81;5042129;28;20207;-31
2022/10/06 11:04:41;;;;;;;4.10;3.10;;;;;;;22.87;56.67;98797.69;5035812;28;20205;-31
2022/10/06 11:07:29;;;;;;;4.73;3.37;;;;;;;22.86;56.62;98794.25;5038115;28;20240;-31
2022/10/06 11:10:21;;;;;;;3.80;3.40;;;;;;;22.86;56.54;98790.81;5037234;28;20225;-31
2022/10/06 11:13:25;;;;;;;3.73;3.07;;;;;;;22.86;56.54;98790.81;5036325;28;20205;-31
2022/10/06 11:16:07;;;;;;;6.20;3.37;;;;;;;22.86;56.42;98796.81;5039102;28;20223;-31
2022/10/06 11:19:11;;;;;;;5.00;3.40;;;;;;;22.86;56.65;98795.94;5036196;28;20201;-31
2022/10/06 11:21:57;;;;;;;5.57;3.40;;;;;;;22.86;56.63;98795.94;5039764;28;20212;-31
2022/10/06 11:24:50;;;;;;;5.27;3.70;;;;;;;22.78;56.77;98779.34;5038698;28;20664;-31
2022/10/06 11:27:41;;;;;;;5.43;3.50;;;;;;;22.86;56.62;98790.81;5024119;28;20606;-31
2022/10/06 11:30:17;;;;;;;7.20;3.63;;;;;;;22.85;56.47;98797.63;5038913;28;20236;-31
2022/10/06 11:33:01;;;;;;;7.80;3.40;;;;;;;22.86;56.73;98790.81;5037665;28;20683;-31
2022/10/06 11:35:34;;;;;;;3.40;3.10;;;;;;;22.85;56.59;98789.94;5037955;28;20738;-31
2022/10/06 11:38:12;;;;;;;4.17;3.33;;;;;;;22.85;56.71;98781.34;5022476;28;20215;-31
2022/10/06 11:40:54;;;;;;;4.60;3.10;;;;;;;22.83;56.68;98776.16;5039008;28;20204;-31
2022/10/06 11:43:38;;;;;;;4.03;3.33;;;;;;;22.77;56.79;98769.91;5039023;28;20838;-31
2022/10/06 11:46:28;;;;;;;3.57;2.93;;;;;;;22.86;56.59;98785.69;5037684;28;20229;-31
2022/10/06 11:49:29;;;;;;;4.10;3.13;;;;;;;22.86;56.59;98789.13;5037595;28;20282;-31
2022/10/06 11:51:56;;;;;;;4.00;3.20;;;;;;;22.85;56.57;98777.13;5040332;28;20209;-31
2022/10/06 11:54:38;;;;;;;4.37;3.10;;;;;;;22.87;56.47;98782.31;5040192;28;20215;-31
2022/10/06 11:57:26;;;;;;;3.63;3.07;;;;;;;22.86;56.40;98775.44;5036774;28;20220;-31
2022/10/06 12:00:02;;;;;;;4.27;3.33;;;;;;;22.86;56.74;98773.72;5037612;28;20205;-31
2022/10/06 12:02:29;;;;;;;5.10;3.10;;;;;;;22.86;56.61;98770.31;5039427;28;20698;-31
2022/10/06 12:05:10;;;;;;;4.97;3.20;;;;;;;22.86;56.53;98770.31;5038596;28;20682;-31
2022/10/06 12:07:57;;;;;;;5.37;2.93;;;;;;;22.86;56.56;98766.03;5038713;28;20204;-31